Time;durP1;ratioP1;P1;durP2;ratioP2;P2;SDS_P1;SDS_P2;PMS_P1;PMS_P2;Temp;Humidity;BMP_temperature;BMP_pressure;BME280_temperature;BME280_humidity;BME280_pressure;Samples;Min_cycle;Max_cycle;Signal;HPM_P1;HPM_P2
2024/02/16 00:00:11;;;;;;;30.00;14.70;;;11.80;99.90;;;;;;5068872;28;20264;-66
2024/02/16 00:02:42;;;;;;;22.27;11.73;;;11.90;99.90;;;;;;5065507;28;20189;-65
2024/02/16 00:05:11;;;;;;;20.27;10.60;;;11.90;99.90;;;;;;5075327;28;20224;-66
2024/02/16 00:07:38;;;;;;;26.10;13.00;;;11.90;99.90;;;;;;5067975;28;20204;-65
2024/02/16 00:10:06;;;;;;;25.17;13.03;;;11.90;99.90;;;;;;5072669;28;20503;-65
2024/02/16 00:12:35;;;;;;;18.50;10.90;;;11.90;99.90;;;;;;5066910;28;20189;-66
2024/02/16 00:15:04;;;;;;;20.33;11.43;;;11.90;99.90;;;;;;5070996;28;20216;-66
2024/02/16 00:17:31;;;;;;;25.57;13.87;;;12.00;99.90;;;;;;5069033;28;20193;-66
2024/02/16 00:19:58;;;;;;;28.43;15.07;;;11.90;99.90;;;;;;5063843;28;20229;-65
2024/02/16 00:22:25;;;;;;;33.07;16.17;;;12.00;99.90;;;;;;5061355;28;20198;-66
2024/02/16 00:24:53;;;;;;;34.63;17.37;;;12.00;99.90;;;;;;5072058;28;20237;-66
2024/02/16 00:27:20;;;;;;;36.33;17.10;;;12.00;99.90;;;;;;5072942;28;20197;-66
2024/02/16 00:29:48;;;;;;;36.13;18.17;;;12.00;99.90;;;;;;5066860;28;20228;-66
2024/02/16 00:32:16;;;;;;;40.37;19.00;;;12.00;99.90;;;;;;5063216;28;20538;-65
2024/02/16 00:34:43;;;;;;;34.80;18.10;;;11.90;99.90;;;;;;5068795;28;20649;-66
2024/02/16 00:37:11;;;;;;;33.27;17.43;;;12.00;99.90;;;;;;5075069;28;20648;-66
2024/02/16 00:39:40;;;;;;;31.63;16.70;;;11.90;99.90;;;;;;5069509;28;20191;-66
2024/02/16 00:42:07;;;;;;;39.53;19.83;;;11.90;99.90;;;;;;5069360;28;20207;-66
2024/02/16 00:44:34;;;;;;;39.77;19.20;;;11.90;99.90;;;;;;5069459;28;20235;-66
2024/02/16 00:47:05;;;;;;;34.60;17.53;;;11.90;99.90;;;;;;5072564;28;20350;-66
2024/02/16 00:49:32;;;;;;;38.87;19.67;;;11.90;99.90;;;;;;5051321;28;20565;-66
2024/02/16 00:52:01;;;;;;;41.93;20.03;;;11.90;99.90;;;;;;5069686;28;20198;-66
2024/02/16 00:54:28;;;;;;;35.70;17.37;;;11.90;99.90;;;;;;5067079;28;20200;-66
2024/02/16 00:57:01;;;;;;;31.17;15.13;;;11.90;99.90;;;;;;5051454;28;20201;-66
2024/02/16 00:59:28;;;;;;;29.77;14.67;;;11.90;99.90;;;;;;5068709;28;20296;-66
2024/02/16 01:01:55;;;;;;;20.00;11.47;;;11.90;99.90;;;;;;5069818;28;20661;-66
2024/02/16 01:04:23;;;;;;;20.97;10.97;;;11.80;99.90;;;;;;5068371;28;20253;-66
2024/02/16 01:06:50;;;;;;;32.00;15.00;;;11.90;99.90;;;;;;5072812;28;20334;-66
2024/02/16 01:09:18;;;;;;;32.93;16.40;;;11.90;99.90;;;;;;5068930;28;20244;-66
2024/02/16 01:11:45;;;;;;;35.93;18.00;;;11.90;99.90;;;;;;5069327;28;20189;-66
2024/02/16 01:14:12;;;;;;;36.53;18.50;;;11.90;99.90;;;;;;5069030;28;20197;-66
2024/02/16 01:16:39;;;;;;;33.50;16.90;;;11.90;99.90;;;;;;5070406;28;20612;-66
2024/02/16 01:19:07;;;;;;;30.80;16.77;;;11.90;99.90;;;;;;5056455;28;20275;-66
2024/02/16 01:21:35;;;;;;;35.77;17.40;;;11.90;99.90;;;;;;5068026;28;20264;-65
2024/02/16 01:24:03;;;;;;;31.77;17.30;;;11.90;99.90;;;;;;5068108;28;20200;-65
2024/02/16 01:26:30;;;;;;;31.90;17.37;;;11.90;99.90;;;;;;5075899;28;20228;-65
2024/02/16 01:28:57;;;;;;;29.87;16.53;;;11.90;99.90;;;;;;5070036;28;20608;-65
2024/02/16 01:31:25;;;;;;;31.33;16.60;;;11.90;99.90;;;;;;5074602;28;20196;-65
2024/02/16 01:33:52;;;;;;;34.70;19.30;;;11.90;99.90;;;;;;5069382;28;20204;-66
2024/02/16 01:36:19;;;;;;;39.00;20.73;;;11.90;99.90;;;;;;5077367;28;20535;-66
2024/02/16 01:38:48;;;;;;;37.53;19.83;;;11.80;99.90;;;;;;5074165;28;20262;-65
2024/02/16 01:41:15;;;;;;;34.87;18.90;;;11.80;99.90;;;;;;5077752;28;20192;-66
2024/02/16 01:43:42;;;;;;;48.57;21.27;;;11.80;99.90;;;;;;5074068;28;20615;-66
2024/02/16 01:46:09;;;;;;;30.10;17.10;;;11.70;99.90;;;;;;5076665;28;20223;-66
2024/02/16 01:48:39;;;;;;;32.47;16.87;;;11.70;99.90;;;;;;5073040;28;20200;-66
2024/02/16 01:51:07;;;;;;;34.33;17.93;;;11.70;99.90;;;;;;5061524;28;20228;-67
2024/02/16 01:53:36;;;;;;;34.53;17.00;;;11.70;99.90;;;;;;5073488;28;20193;-67
2024/02/16 01:56:05;;;;;;;29.73;16.17;;;11.70;99.90;;;;;;5071840;28;20216;-66
2024/02/16 01:58:32;;;;;;;35.90;17.53;;;11.70;99.90;;;;;;5071693;28;20201;-66
2024/02/16 02:00:59;;;;;;;35.07;16.93;;;11.70;99.90;;;;;;5071622;28;20274;-67
2024/02/16 02:03:26;;;;;;;37.13;19.17;;;11.70;99.90;;;;;;5073667;28;20204;-67
2024/02/16 02:05:56;;;;;;;35.13;18.03;;;11.70;99.90;;;;;;5071329;28;20268;-67
2024/02/16 02:08:23;;;;;;;43.97;20.10;;;11.70;99.90;;;;;;5078949;28;20399;-66
2024/02/16 02:10:50;;;;;;;41.00;20.17;;;11.70;99.90;;;;;;5070467;28;20694;-66
2024/02/16 02:13:19;;;;;;;36.67;18.73;;;11.70;99.90;;;;;;5077258;28;20197;-66
2024/02/16 02:15:46;;;;;;;45.97;20.60;;;11.60;99.90;;;;;;5081364;28;20610;-65
2024/02/16 02:18:13;;;;;;;44.23;21.17;;;11.70;99.90;;;;;;5073559;28;20200;-65
2024/02/16 02:20:41;;;;;;;47.30;21.47;;;11.60;99.90;;;;;;5071670;28;20282;-66
2024/02/16 02:23:09;;;;;;;39.83;19.97;;;11.70;99.90;;;;;;5071866;28;20231;-66
2024/02/16 02:25:36;;;;;;;47.80;22.13;;;11.60;99.90;;;;;;5070968;28;20202;-66
2024/02/16 02:28:04;;;;;;;49.33;22.33;;;11.60;99.90;;;;;;5074787;28;20234;-66
2024/02/16 02:30:31;;;;;;;41.10;19.40;;;11.70;99.90;;;;;;5071317;28;20644;-66
2024/02/16 02:32:58;;;;;;;47.97;22.90;;;11.70;99.90;;;;;;5069903;28;20482;-66
2024/02/16 02:35:25;;;;;;;38.87;19.97;;;11.60;99.90;;;;;;5071682;28;20296;-66
2024/02/16 02:37:52;;;;;;;48.57;22.93;;;11.60;99.90;;;;;;5078851;28;20205;-66
2024/02/16 02:40:21;;;;;;;47.00;22.77;;;11.70;99.90;;;;;;5053149;28;21041;-66
2024/02/16 02:42:48;;;;;;;50.17;23.03;;;11.70;99.90;;;;;;5076215;28;20255;-66
2024/02/16 02:45:15;;;;;;;52.73;22.57;;;11.60;99.90;;;;;;5071484;28;20193;-66
2024/02/16 02:47:43;;;;;;;50.40;23.67;;;11.60;99.90;;;;;;5074536;28;20195;-65
2024/02/16 02:50:10;;;;;;;39.23;19.40;;;11.60;99.90;;;;;;5071145;28;20213;-66
2024/02/16 02:52:37;;;;;;;40.67;18.17;;;11.60;99.90;;;;;;5072290;28;20679;-66
2024/02/16 02:55:06;;;;;;;47.97;21.60;;;11.60;99.90;;;;;;5071072;28;20204;-66
2024/02/16 02:57:34;;;;;;;45.57;20.90;;;11.60;99.90;;;;;;5053173;28;20262;-66
2024/02/16 03:00:10;;;;;;;50.13;23.40;;;11.60;99.90;;;;;;5070906;28;20227;-66
2024/02/16 03:02:38;;;;;;;56.67;25.23;;;11.70;99.90;;;;;;5051671;28;20563;-66
2024/02/16 03:05:07;;;;;;;44.33;21.63;;;11.70;99.90;;;;;;5071127;28;20225;-66
2024/02/16 03:07:34;;;;;;;48.13;22.00;;;11.70;99.90;;;;;;5073239;28;20198;-66
2024/02/16 03:10:01;;;;;;;47.50;22.37;;;11.70;99.90;;;;;;5078011;28;20645;-65
2024/02/16 03:12:27;;;;;;;44.57;22.37;;;11.70;99.90;;;;;;5079891;28;20201;-65
2024/02/16 03:14:56;;;;;;;54.13;24.93;;;11.70;99.90;;;;;;5071160;28;20192;-66
2024/02/16 03:17:23;;;;;;;48.40;24.03;;;11.70;99.90;;;;;;5070191;28;20671;-66
2024/02/16 03:19:50;;;;;;;41.07;19.20;;;11.70;99.90;;;;;;5069749;28;20293;-66
2024/02/16 03:22:18;;;;;;;44.43;20.83;;;11.70;99.90;;;;;;5069723;28;20197;-67
2024/02/16 03:24:45;;;;;;;44.90;22.07;;;11.70;99.90;;;;;;5070249;28;20216;-67
2024/02/16 03:27:14;;;;;;;44.20;21.27;;;11.70;99.90;;;;;;5071168;28;20253;-66
2024/02/16 03:29:41;;;;;;;42.20;20.10;;;11.70;99.90;;;;;;5079870;28;20654;-66
2024/02/16 03:32:09;;;;;;;45.40;22.40;;;11.70;99.90;;;;;;5052041;28;20610;-67
2024/02/16 03:34:36;;;;;;;43.23;21.27;;;11.70;99.90;;;;;;5052244;28;20209;-66
2024/02/16 03:37:03;;;;;;;48.77;24.07;;;11.70;99.90;;;;;;5070966;28;20208;-66
2024/02/16 03:39:30;;;;;;;48.23;24.07;;;11.60;99.90;;;;;;5076582;28;20189;-67
2024/02/16 03:41:57;;;;;;;50.70;24.47;;;11.70;99.90;;;;;;5075763;28;20190;-66
2024/02/16 03:44:25;;;;;;;45.20;22.80;;;11.70;99.90;;;;;;5074736;28;20194;-67
2024/02/16 03:46:52;;;;;;;45.07;22.47;;;11.60;99.90;;;;;;5070350;28;20200;-66
2024/02/16 03:49:20;;;;;;;43.37;21.80;;;11.70;99.90;;;;;;5072766;28;20668;-66
2024/02/16 03:51:47;;;;;;;42.67;21.00;;;11.70;99.90;;;;;;5069350;28;20202;-66
2024/02/16 03:54:14;;;;;;;42.53;21.33;;;11.70;99.90;;;;;;5070787;28;20648;-66
2024/02/16 03:56:41;;;;;;;45.30;22.90;;;11.70;99.90;;;;;;5070637;28;20197;-66
2024/02/16 03:59:10;;;;;;;38.87;21.87;;;11.70;99.90;;;;;;5069803;28;20202;-66
2024/02/16 04:01:37;;;;;;;35.23;19.23;;;11.70;99.90;;;;;;5070097;28;20656;-66
2024/02/16 04:04:04;;;;;;;34.60;18.17;;;11.70;99.90;;;;;;5071018;28;20228;-66
2024/02/16 04:06:33;;;;;;;27.73;15.43;;;11.70;99.90;;;;;;5077884;28;20250;-66
2024/02/16 04:09:00;;;;;;;27.83;15.70;;;11.70;99.90;;;;;;5059016;28;20193;-65
2024/02/16 04:11:29;;;;;;;32.13;17.00;;;11.70;99.90;;;;;;5070131;28;20215;-66
2024/02/16 04:13:56;;;;;;;33.47;17.63;;;11.80;99.90;;;;;;5069013;28;20201;-66
2024/02/16 04:16:24;;;;;;;33.00;18.47;;;11.80;99.90;;;;;;5069574;28;20584;-66
2024/02/16 04:18:52;;;;;;;33.20;18.67;;;11.80;99.90;;;;;;5052262;28;20266;-66
2024/02/16 04:21:19;;;;;;;34.23;19.07;;;11.80;99.90;;;;;;5069281;28;20190;-65
2024/02/16 04:23:47;;;;;;;33.43;18.33;;;11.80;99.90;;;;;;5069330;28;20201;-65
2024/02/16 04:26:14;;;;;;;32.57;18.73;;;11.80;99.90;;;;;;5069454;28;20201;-65
2024/02/16 04:28:41;;;;;;;32.63;18.10;;;11.80;99.90;;;;;;5069894;28;20208;-65
2024/02/16 04:31:08;;;;;;;45.17;21.80;;;11.90;99.90;;;;;;5051150;28;20217;-65
2024/02/16 04:33:35;;;;;;;33.20;18.40;;;11.90;99.90;;;;;;5068453;28;20283;-65
2024/02/16 04:36:04;;;;;;;39.20;21.17;;;11.90;99.90;;;;;;5069888;28;20254;-65
2024/02/16 04:38:31;;;;;;;51.27;25.90;;;11.90;99.90;;;;;;5069967;28;20201;-65
2024/02/16 04:40:59;;;;;;;46.63;25.13;;;11.90;99.90;;;;;;5069474;28;20272;-66
2024/02/16 04:43:26;;;;;;;52.60;26.67;;;11.90;99.90;;;;;;5069295;28;20636;-66
2024/02/16 04:45:54;;;;;;;53.63;28.27;;;11.90;99.90;;;;;;5075994;28;20214;-65
2024/02/16 04:48:21;;;;;;;51.40;26.17;;;11.90;99.90;;;;;;5069159;28;20212;-65
2024/02/16 04:50:48;;;;;;;49.43;26.17;;;11.80;99.90;;;;;;5074365;28;20241;-65
2024/02/16 04:53:15;;;;;;;50.90;27.30;;;11.80;99.90;;;;;;5064953;28;20193;-66
2024/02/16 04:55:42;;;;;;;51.67;27.20;;;11.80;99.90;;;;;;5066478;28;20205;-66
2024/02/16 04:58:10;;;;;;;51.90;27.20;;;11.80;99.90;;;;;;5068649;28;20581;-67
2024/02/16 05:00:38;;;;;;;53.23;29.13;;;11.80;99.90;;;;;;5069299;28;20190;-67
2024/02/16 05:03:06;;;;;;;46.43;26.70;;;11.80;99.90;;;;;;5065104;28;20281;-67
2024/02/16 05:05:33;;;;;;;46.63;25.67;;;11.70;99.90;;;;;;5077009;28;20256;-67
2024/02/16 05:08:01;;;;;;;48.60;26.40;;;11.70;99.90;;;;;;5069134;28;20663;-67
2024/02/16 05:10:28;;;;;;;54.43;28.63;;;11.70;99.90;;;;;;5074925;28;20213;-67
2024/02/16 05:12:55;;;;;;;47.30;26.63;;;11.70;99.90;;;;;;5072235;28;20200;-67
2024/02/16 05:15:24;;;;;;;45.90;25.13;;;11.70;99.90;;;;;;5055056;28;20193;-67
2024/02/16 05:17:51;;;;;;;43.43;25.17;;;11.60;99.90;;;;;;5068996;28;20661;-67
2024/02/16 05:20:19;;;;;;;41.17;22.90;;;11.70;99.90;;;;;;5081512;28;20260;-67
2024/02/16 05:22:48;;;;;;;42.30;24.97;;;11.60;99.90;;;;;;5075366;28;20203;-66
2024/02/16 05:25:17;;;;;;;44.40;26.17;;;11.70;99.90;;;;;;5073033;28;20547;-67
2024/02/16 05:27:44;;;;;;;46.07;26.27;;;11.60;99.90;;;;;;5072606;28;20201;-67
2024/02/16 05:30:15;;;;;;;51.40;29.00;;;11.70;99.90;;;;;;5079197;28;20292;-68
2024/02/16 05:32:44;;;;;;;52.13;29.93;;;11.60;99.90;;;;;;5071272;28;20279;-68
2024/02/16 05:35:12;;;;;;;46.33;26.13;;;11.60;99.90;;;;;;5078761;28;20185;-67
2024/02/16 05:37:40;;;;;;;49.10;27.93;;;11.60;99.90;;;;;;5072989;28;20273;-68
2024/02/16 05:40:18;;;;;;;48.30;27.57;;;11.50;99.90;;;;;;5073465;28;20227;-67
2024/02/16 05:42:48;;;;;;;41.33;24.03;;;11.50;99.90;;;;;;5068634;28;20681;-67
2024/02/16 05:45:15;;;;;;;53.60;28.53;;;11.50;99.90;;;;;;5076879;28;20693;-67
2024/02/16 05:47:46;;;;;;;52.30;26.33;;;11.50;99.90;;;;;;5072027;28;20601;-67
2024/02/16 05:50:13;;;;;;;41.53;23.90;;;11.40;99.90;;;;;;5084357;28;20212;-67
2024/02/16 05:52:41;;;;;;;37.83;23.23;;;11.40;99.90;;;;;;5060261;28;21783;-67
2024/02/16 05:55:09;;;;;;;45.23;25.13;;;11.50;99.90;;;;;;5070509;28;20213;-67
2024/02/16 05:57:37;;;;;;;43.83;26.50;;;11.50;99.90;;;;;;5072099;28;20208;-67
2024/02/16 06:00:05;;;;;;;54.93;28.17;;;11.50;99.90;;;;;;5067541;28;20197;-67
2024/02/16 06:02:32;;;;;;;42.97;24.90;;;11.50;99.90;;;;;;5069002;28;20216;-67
2024/02/16 06:05:02;;;;;;;47.23;25.63;;;11.40;99.90;;;;;;5062044;28;20231;-67
2024/02/16 06:07:30;;;;;;;48.17;26.93;;;11.50;99.90;;;;;;5078446;28;20588;-67
2024/02/16 06:09:57;;;;;;;54.03;27.47;;;11.40;99.90;;;;;;5073701;28;20535;-68
2024/02/16 06:12:25;;;;;;;50.10;27.30;;;11.50;99.90;;;;;;5064668;28;20204;-67
2024/02/16 06:14:53;;;;;;;47.70;26.03;;;11.40;99.90;;;;;;5078554;28;20705;-67
2024/02/16 06:17:20;;;;;;;51.73;28.00;;;11.40;99.90;;;;;;5074237;28;20211;-67
2024/02/16 06:19:47;;;;;;;47.93;26.63;;;11.30;99.90;;;;;;5072178;28;20214;-67
2024/02/16 06:22:16;;;;;;;49.13;26.57;;;11.30;99.90;;;;;;5071953;28;20270;-67
2024/02/16 06:24:44;;;;;;;45.17;26.23;;;11.30;99.90;;;;;;5071246;28;20684;-66
2024/02/16 06:27:11;;;;;;;42.73;24.83;;;11.40;99.90;;;;;;5072550;28;20311;-67
2024/02/16 06:29:38;;;;;;;39.90;22.40;;;11.40;99.90;;;;;;5070442;28;20224;-66
2024/02/16 06:32:06;;;;;;;34.97;20.27;;;11.30;99.90;;;;;;5077683;28;20272;-66
2024/02/16 06:34:33;;;;;;;39.07;21.40;;;11.30;99.90;;;;;;5070859;28;20593;-67
2024/02/16 06:37:00;;;;;;;49.10;24.23;;;11.40;99.90;;;;;;5074643;28;20553;-67
2024/02/16 06:39:30;;;;;;;44.20;22.53;;;11.40;99.90;;;;;;5071432;28;20199;-68
2024/02/16 06:41:58;;;;;;;43.30;22.43;;;11.40;99.90;;;;;;5075612;28;20537;-67
2024/02/16 06:44:25;;;;;;;32.60;19.57;;;11.40;99.90;;;;;;5071651;28;20235;-67
2024/02/16 06:46:52;;;;;;;33.57;19.20;;;11.40;99.90;;;;;;5068304;28;20538;-67
2024/02/16 06:49:19;;;;;;;37.30;19.67;;;11.40;99.90;;;;;;5068040;28;20193;-67
2024/02/16 06:51:46;;;;;;;32.03;18.70;;;11.50;99.90;;;;;;5072904;28;20220;-66
2024/02/16 06:54:14;;;;;;;33.87;18.60;;;11.40;99.90;;;;;;5069814;28;20540;-66
2024/02/16 06:56:42;;;;;;;30.23;18.27;;;11.50;99.90;;;;;;5072201;28;20269;-67
2024/02/16 06:59:10;;;;;;;31.80;18.17;;;11.50;99.90;;;;;;5069673;28;20198;-67
2024/02/16 07:01:37;;;;;;;36.53;20.00;;;11.50;99.90;;;;;;5073173;28;20197;-66
2024/02/16 07:04:05;;;;;;;37.23;21.50;;;11.50;99.90;;;;;;5065197;28;20229;-66
2024/02/16 07:06:32;;;;;;;35.83;20.50;;;11.50;99.90;;;;;;5051697;28;20234;-65
2024/02/16 07:08:59;;;;;;;34.23;20.07;;;11.50;99.90;;;;;;5063730;28;20193;-65
2024/02/16 07:11:26;;;;;;;35.77;18.70;;;11.50;99.90;;;;;;5071408;28;20211;-67
2024/02/16 07:13:55;;;;;;;38.23;21.23;;;11.50;99.90;;;;;;5066104;28;20644;-65
2024/02/16 07:16:22;;;;;;;32.90;19.53;;;11.50;99.90;;;;;;5075428;28;20274;-67
2024/02/16 07:18:50;;;;;;;32.77;19.20;;;11.40;99.90;;;;;;5068419;28;20698;-66
2024/02/16 07:21:20;;;;;;;28.70;16.90;;;11.40;99.90;;;;;;5069877;28;20200;-66
2024/02/16 07:23:48;;;;;;;32.00;18.93;;;11.30;99.90;;;;;;5067875;28;20202;-66
2024/02/16 07:26:16;;;;;;;34.13;19.57;;;11.30;99.90;;;;;;5065887;28;20186;-66
2024/02/16 07:28:44;;;;;;;35.73;20.00;;;11.30;99.90;;;;;;5067531;28;20283;-66
2024/02/16 07:31:14;;;;;;;31.77;18.63;;;11.30;99.90;;;;;;5069070;28;20238;-66
2024/02/16 07:33:41;;;;;;;36.57;20.13;;;11.30;99.90;;;;;;5065566;28;20203;-67
2024/02/16 07:36:08;;;;;;;36.70;19.50;;;11.30;99.90;;;;;;5067731;28;20189;-66
2024/02/16 07:38:36;;;;;;;33.80;20.47;;;11.30;99.90;;;;;;5066241;28;20203;-66
2024/02/16 07:41:05;;;;;;;33.63;19.27;;;11.30;99.90;;;;;;5069275;28;20189;-66
2024/02/16 07:43:32;;;;;;;37.40;20.50;;;11.30;99.90;;;;;;5051847;28;20236;-67
2024/02/16 07:45:59;;;;;;;34.20;18.20;;;11.30;99.90;;;;;;5066155;28;20253;-67
2024/02/16 07:48:28;;;;;;;35.57;19.60;;;11.30;99.90;;;;;;5048454;28;20275;-67
2024/02/16 07:50:57;;;;;;;36.67;20.60;;;11.30;99.90;;;;;;5067203;28;20222;-67
2024/02/16 07:53:25;;;;;;;34.00;20.47;;;11.30;99.90;;;;;;5069157;28;20641;-67
2024/02/16 07:55:52;;;;;;;33.23;19.30;;;11.40;99.90;;;;;;5065901;28;20224;-67
2024/02/16 07:58:19;;;;;;;37.00;20.43;;;11.40;99.90;;;;;;5067745;28;20213;-66
2024/02/16 08:00:46;;;;;;;31.97;18.57;;;11.40;99.90;;;;;;5065635;28;20674;-67
2024/02/16 08:03:13;;;;;;;33.00;18.93;;;11.50;99.90;;;;;;5065298;28;20204;-67
2024/02/16 08:05:42;;;;;;;34.97;19.67;;;11.50;99.90;;;;;;5065799;28;20220;-67
2024/02/16 08:08:09;;;;;;;36.13;19.80;;;11.50;99.90;;;;;;5066272;28;20655;-65
2024/02/16 08:10:36;;;;;;;37.20;20.00;;;11.50;99.90;;;;;;5067564;28;20636;-66
2024/02/16 08:13:03;;;;;;;33.70;18.17;;;10.50;99.90;;;;;;5066090;28;20201;-66
2024/02/16 08:15:31;;;;;;;30.87;19.00;;;11.50;99.90;;;;;;5066879;28;20200;-66
2024/02/16 08:17:58;;;;;;;35.93;19.23;;;11.50;99.90;;;;;;5048196;28;20256;-66
2024/02/16 08:20:25;;;;;;;35.23;20.77;;;11.50;99.90;;;;;;5066860;28;20541;-66
2024/02/16 08:22:54;;;;;;;34.57;19.27;;;11.60;99.90;;;;;;5066838;28;20203;-66
2024/02/16 08:25:21;;;;;;;36.97;20.07;;;11.60;99.90;;;;;;5065893;28;20262;-66
2024/02/16 08:27:50;;;;;;;35.67;19.37;;;11.60;99.90;;;;;;5066225;28;20224;-66
2024/02/16 08:30:17;;;;;;;29.00;17.43;;;11.60;99.90;;;;;;5066468;28;20831;-67
2024/02/16 08:32:44;;;;;;;32.20;18.17;;;11.70;99.90;;;;;;5067770;28;20213;-66
2024/02/16 08:35:14;;;;;;;33.80;19.20;;;11.70;99.90;;;;;;5066038;28;20197;-65
2024/02/16 08:37:41;;;;;;;35.10;20.13;;;11.70;99.90;;;;;;5060197;28;20252;-65
2024/02/16 08:40:14;;;;;;;33.50;19.20;;;11.70;99.90;;;;;;5067236;28;20203;-66
2024/02/16 08:42:42;;;;;;;35.63;19.73;;;11.70;99.90;;;;;;5063204;28;20187;-67
2024/02/16 08:45:10;;;;;;;29.47;18.33;;;11.70;99.90;;;;;;5070001;28;20231;-67
2024/02/16 08:47:38;;;;;;;33.13;18.50;;;11.80;99.90;;;;;;5068056;28;20203;-66
2024/02/16 08:50:06;;;;;;;25.67;15.17;;;11.80;99.90;;;;;;5070289;28;20220;-66
2024/02/16 08:52:34;;;;;;;26.80;15.40;;;11.80;99.90;;;;;;5074036;28;20213;-67
2024/02/16 08:55:01;;;;;;;33.03;19.60;;;11.80;99.90;;;;;;5066327;28;20189;-66
2024/02/16 08:57:30;;;;;;;31.43;18.13;;;11.80;99.90;;;;;;5067966;28;20186;-66
2024/02/16 08:59:57;;;;;;;28.57;16.70;;;11.80;99.90;;;;;;5071515;28;20193;-66
2024/02/16 09:02:24;;;;;;;31.77;18.20;;;11.90;99.90;;;;;;5068794;28;20660;-66
2024/02/16 09:04:51;;;;;;;28.93;17.60;;;11.90;99.90;;;;;;5063716;28;20420;-66
2024/02/16 09:07:18;;;;;;;28.60;16.80;;;11.90;99.90;;;;;;5052137;28;20664;-66
2024/02/16 09:09:46;;;;;;;25.50;15.27;;;11.90;99.90;;;;;;5072440;28;20311;-66
2024/02/16 09:12:13;;;;;;;26.93;15.17;;;11.90;99.90;;;;;;5070323;28;20637;-65
2024/02/16 09:14:41;;;;;;;30.47;16.87;;;12.00;99.90;;;;;;5068963;28;20204;-65
2024/02/16 09:17:08;;;;;;;27.57;16.77;;;12.00;99.90;;;;;;5070290;28;20219;-66
2024/02/16 09:19:36;;;;;;;28.53;17.10;;;12.10;99.90;;;;;;5069677;28;20197;-66
2024/02/16 09:22:03;;;;;;;27.53;16.97;;;12.10;99.90;;;;;;5068306;28;20646;-66
2024/02/16 09:24:30;;;;;;;27.17;16.60;;;12.20;99.90;;;;;;5070244;28;20296;-66
2024/02/16 09:27:03;;;;;;;28.23;17.13;;;12.30;99.90;;;;;;5064686;28;20229;-66
2024/02/16 09:29:30;;;;;;;25.70;16.63;;;12.50;99.90;;;;;;5070156;28;20193;-66
2024/02/16 09:31:59;;;;;;;25.30;15.57;;;12.40;99.90;;;;;;5050927;28;20201;-66
2024/02/16 09:34:26;;;;;;;24.03;14.57;;;12.50;99.90;;;;;;5068472;28;20202;-65
2024/02/16 09:36:53;;;;;;;23.47;14.03;;;12.70;99.90;;;;;;5050505;28;20270;-66
2024/02/16 09:39:20;;;;;;;23.70;14.60;;;13.00;99.90;;;;;;5071555;28;20766;-66
2024/02/16 09:41:52;;;;;;;21.77;13.83;;;13.10;99.90;;;;;;5068800;28;20196;-65
2024/02/16 09:44:20;;;;;;;26.70;15.43;;;13.30;99.90;;;;;;5069499;28;20228;-65
2024/02/16 09:46:47;;;;;;;23.00;14.70;;;13.50;99.90;;;;;;5063597;28;20198;-66
2024/02/16 09:49:16;;;;;;;22.00;14.80;;;13.70;99.90;;;;;;5070426;28;20195;-66
2024/02/16 09:51:43;;;;;;;24.23;15.77;;;14.00;99.90;;;;;;5068119;28;20214;-66
2024/02/16 09:54:11;;;;;;;23.23;14.17;;;14.30;99.90;;;;;;5069325;28;20278;-65
2024/02/16 09:56:38;;;;;;;19.70;12.23;;;14.40;99.90;;;;;;5067888;28;20223;-66
2024/02/16 09:59:07;;;;;;;26.10;14.27;;;14.60;99.90;;;;;;5072677;28;20195;-66
2024/02/16 10:01:34;;;;;;;19.20;12.33;;;14.80;99.90;;;;;;5069305;28;20332;-66
2024/02/16 10:04:07;;;;;;;18.30;12.60;;;15.10;99.90;;;;;;5068450;28;20204;-67
2024/02/16 10:06:47;;;;;;;16.63;10.63;;;15.30;99.90;;;;;;5060082;28;20299;-70
2024/02/16 10:09:23;;;;;;;21.17;12.63;;;15.60;99.90;;;;;;5073901;28;20664;-71
2024/02/16 10:11:50;;;;;;;18.90;11.87;;;15.70;99.90;;;;;;5069078;28;21051;-69
2024/02/16 10:14:19;;;;;;;16.77;11.23;;;15.70;99.90;;;;;;5069095;28;20231;-68
2024/02/16 10:16:47;;;;;;;16.77;11.00;;;15.80;99.90;;;;;;5071625;28;20243;-69
2024/02/16 10:19:14;;;;;;;19.83;12.63;;;16.20;99.90;;;;;;5064158;28;20193;-69
2024/02/16 10:21:43;;;;;;;17.70;11.27;;;16.60;99.90;;;;;;5047948;28;20193;-69
2024/02/16 10:24:14;;;;;;;16.10;10.10;;;17.10;99.90;;;;;;5049104;28;20577;-69
2024/02/16 10:26:42;;;;;;;16.57;10.50;;;17.50;99.90;;;;;;5053553;28;20206;-69
2024/02/16 10:29:10;;;;;;;14.23;9.20;;;17.80;99.90;;;;;;5069528;28;20200;-69
2024/02/16 10:31:38;;;;;;;15.70;10.23;;;18.00;99.90;;;;;;5057640;28;20203;-69
2024/02/16 10:34:06;;;;;;;17.80;10.97;;;18.10;99.90;;;;;;5044131;28;20537;-69
2024/02/16 10:36:35;;;;;;;18.20;10.63;;;18.20;99.90;;;;;;5068640;28;20623;-69
2024/02/16 10:39:05;;;;;;;15.07;9.90;;;18.30;99.90;;;;;;5070673;28;20201;-69
2024/02/16 10:41:35;;;;;;;13.73;8.63;;;18.30;99.90;;;;;;5064473;28;20245;-68
2024/02/16 10:44:04;;;;;;;15.40;10.10;;;18.40;99.90;;;;;;5063451;28;20651;-69
2024/02/16 10:46:32;;;;;;;14.30;8.70;;;18.60;99.90;;;;;;5071114;28;20218;-69
2024/02/16 10:48:59;;;;;;;14.43;8.48;;;18.80;99.90;;;;;;5066282;28;20197;-69
2024/02/16 10:51:32;;;;;;;16.73;9.65;;;19.00;99.90;;;;;;5066219;28;20201;-69
2024/02/16 10:54:04;;;;;;;14.87;9.57;;;19.00;99.90;;;;;;5062005;28;20193;-69
2024/02/16 10:56:35;;;;;;;18.42;9.80;;;19.20;99.90;;;;;;5075973;28;20193;-69
2024/02/16 10:59:07;;;;;;;12.32;8.45;;;19.40;99.90;;;;;;5067662;28;20712;-69
2024/02/16 11:01:38;;;;;;;14.95;8.45;;;19.30;99.90;;;;;;5050827;28;20204;-69
2024/02/16 11:04:08;;;;;;;14.80;8.63;;;19.30;99.90;;;;;;5064790;28;20254;-69
2024/02/16 11:06:47;;;;;;;16.80;9.27;;;19.20;99.90;;;;;;5062274;28;20205;-69
2024/02/16 11:09:27;;;;;;;17.23;10.05;;;18.90;99.90;;;;;;5045428;28;20213;-70
2024/02/16 11:11:55;;;;;;;13.70;8.83;;;18.40;99.90;;;;;;5071319;28;20256;-70
2024/02/16 11:14:24;;;;;;;13.43;8.53;;;18.00;99.90;;;;;;5067747;28;20213;-70
2024/02/16 11:16:56;;;;;;;14.90;8.47;;;17.80;99.90;;;;;;5067742;28;20196;-71
2024/02/16 11:19:23;;;;;;;16.95;9.63;;;17.70;99.90;;;;;;5061688;28;20214;-71
2024/02/16 11:21:58;;;;;;;16.38;9.52;;;17.50;99.90;;;;;;5048776;28;20208;-69
2024/02/16 11:24:34;;;;;;;16.85;9.82;;;17.50;99.90;;;;;;5068533;28;20604;-72
2024/02/16 11:27:05;;;;;;;16.20;8.65;;;17.50;99.90;;;;;;5068576;28;20440;-70
2024/02/16 11:29:35;;;;;;;15.40;9.10;;;17.40;99.90;;;;;;5073803;28;20187;-71
2024/02/16 11:32:04;;;;;;;14.35;8.90;;;17.20;99.90;;;;;;5048603;28;20248;-72
2024/02/16 11:34:32;;;;;;;16.33;9.23;;;17.00;99.90;;;;;;5065145;28;20191;-70
2024/02/16 11:37:00;;;;;;;16.23;9.53;;;16.90;99.90;;;;;;5046563;28;20203;-70
2024/02/16 11:39:29;;;;;;;13.23;7.83;;;16.80;99.90;;;;;;5068173;28;20203;-70
2024/02/16 11:42:05;;;;;;;15.63;8.40;;;16.70;99.90;;;;;;5066004;28;20686;-70
2024/02/16 11:44:33;;;;;;;14.17;8.47;;;16.60;99.90;;;;;;5050678;28;20311;-71
2024/02/16 11:47:01;;;;;;;18.53;9.70;;;16.60;99.90;;;;;;5070226;28;20659;-71
2024/02/16 11:49:30;;;;;;;13.77;9.30;;;16.60;99.90;;;;;;5068210;28;20248;-70
2024/02/16 11:51:57;;;;;;;15.77;10.10;;;16.50;99.90;;;;;;5065641;28;20323;-70
2024/02/16 11:54:24;;;;;;;16.43;9.43;;;16.50;99.90;;;;;;5059902;28;20645;-70
2024/02/16 11:56:53;;;;;;;17.07;9.50;;;16.50;99.90;;;;;;5057655;28;20199;-71
2024/02/16 11:59:22;;;;;;;17.10;10.40;;;16.60;99.90;;;;;;5061148;28;20726;-71
2024/02/16 12:01:54;;;;;;;17.40;10.10;;;16.60;99.90;;;;;;5060757;28;20294;-71
2024/02/16 12:04:22;;;;;;;15.67;9.33;;;17.00;99.90;;;;;;5063323;28;20675;-68
2024/02/16 12:06:52;;;;;;;15.87;8.87;;;16.70;99.90;;;;;;5062295;28;20599;-68
2024/02/16 12:09:20;;;;;;;14.90;9.27;;;16.70;99.90;;;;;;5056580;28;20212;-67
2024/02/16 12:14:54;;;;;;;21.53;9.90;;;16.70;99.90;;;;;;5062747;28;20552;-68
2024/02/16 12:17:21;;;;;;;17.40;10.70;;;16.70;99.90;;;;;;5072488;28;20196;-68
2024/02/16 12:19:51;;;;;;;14.53;9.63;;;16.80;99.90;;;;;;5063609;28;20219;-68
2024/02/16 12:22:18;;;;;;;15.30;9.67;;;16.80;99.90;;;;;;5070734;28;20199;-68
2024/02/16 12:24:46;;;;;;;18.40;11.00;;;16.80;99.90;;;;;;5036346;28;20558;-67
2024/02/16 12:27:14;;;;;;;14.87;9.40;;;16.80;99.90;;;;;;5068642;28;20295;-68
2024/02/16 12:29:41;;;;;;;14.50;9.57;;;16.80;99.90;;;;;;5064273;28;20204;-69
2024/02/16 12:32:10;;;;;;;16.17;9.75;;;16.70;99.90;;;;;;5060773;28;20203;-69
2024/02/16 12:34:38;;;;;;;15.87;10.07;;;16.60;99.90;;;;;;5065991;28;20207;-68